sensor_id;sensor_type;location;lat;lon;timestamp;temperature;humidity
16907;DHT22;8570;52.380;4.654;2022-11-12T00:03:45;8.60;99.90
16907;DHT22;8570;52.380;4.654;2022-11-12T00:08:48;8.60;99.90
16907;DHT22;8570;52.380;4.654;2022-11-12T00:13:50;8.50;99.90
16907;DHT22;8570;52.380;4.654;2022-11-12T00:23:55;8.40;99.90
16907;DHT22;8570;52.380;4.654;2022-11-12T00:28:57;8.40;99.90
16907;DHT22;8570;52.380;4.654;2022-11-12T00:34:00;8.40;99.90
16907;DHT22;8570;52.380;4.654;2022-11-12T00:39:04;8.40;99.90
16907;DHT22;8570;52.380;4.654;2022-11-12T00:44:06;8.30;99.90
16907;DHT22;8570;52.380;4.654;2022-11-12T00:49:08;8.30;99.90
16907;DHT22;8570;52.380;4.654;2022-11-12T00:54:11;8.30;99.90
16907;DHT22;8570;52.380;4.654;2022-11-12T00:59:13;8.40;99.90
16907;DHT22;8570;52.380;4.654;2022-11-12T01:04:15;8.40;99.90
16907;DHT22;8570;52.380;4.654;2022-11-12T01:09:18;8.40;99.90
16907;DHT22;8570;52.380;4.654;2022-11-12T01:14:20;8.40;99.90
16907;DHT22;8570;52.380;4.654;2022-11-12T01:19:22;8.40;99.90
16907;DHT22;8570;52.380;4.654;2022-11-12T01:24:25;8.40;99.90
16907;DHT22;8570;52.380;4.654;2022-11-12T01:29:27;8.50;99.90
16907;DHT22;8570;52.380;4.654;2022-11-12T01:34:29;8.50;99.90
16907;DHT22;8570;52.380;4.654;2022-11-12T01:39:32;8.50;99.90
16907;DHT22;8570;52.380;4.654;2022-11-12T01:44:36;8.60;99.90
16907;DHT22;8570;52.380;4.654;2022-11-12T01:49:41;8.70;99.90
16907;DHT22;8570;52.380;4.654;2022-11-12T01:54:48;8.80;99.90
16907;DHT22;8570;52.380;4.654;2022-11-12T01:59:54;8.60;99.90
16907;DHT22;8570;52.380;4.654;2022-11-12T02:05:00;8.70;99.90
16907;DHT22;8570;52.380;4.654;2022-11-12T02:10:05;8.80;99.90
16907;DHT22;8570;52.380;4.654;2022-11-12T02:15:09;8.70;99.90
16907;DHT22;8570;52.380;4.654;2022-11-12T02:20:12;8.80;99.90
16907;DHT22;8570;52.380;4.654;2022-11-12T02:25:20;8.90;99.90
16907;DHT22;8570;52.380;4.654;2022-11-12T02:30:31;8.90;99.90
16907;DHT22;8570;52.380;4.654;2022-11-12T02:35:33;9.00;99.90
16907;DHT22;8570;52.380;4.654;2022-11-12T02:40:36;9.00;99.90
16907;DHT22;8570;52.380;4.654;2022-11-12T02:45:38;9.10;99.90
16907;DHT22;8570;52.380;4.654;2022-11-12T02:50:40;9.10;99.90
16907;DHT22;8570;52.380;4.654;2022-11-12T02:55:43;9.10;99.90
16907;DHT22;8570;52.380;4.654;2022-11-12T03:00:46;9.20;99.90
16907;DHT22;8570;52.380;4.654;2022-11-12T03:05:55;9.20;99.90
16907;DHT22;8570;52.380;4.654;2022-11-12T03:11:04;9.20;99.90
16907;DHT22;8570;52.380;4.654;2022-11-12T03:16:06;9.30;99.90
16907;DHT22;8570;52.380;4.654;2022-11-12T03:21:08;9.20;99.90
16907;DHT22;8570;52.380;4.654;2022-11-12T03:26:11;9.20;99.90
16907;DHT22;8570;52.380;4.654;2022-11-12T03:31:13;9.20;99.90
16907;DHT22;8570;52.380;4.654;2022-11-12T03:36:15;9.20;99.90
16907;DHT22;8570;52.380;4.654;2022-11-12T03:41:18;9.20;99.90
16907;DHT22;8570;52.380;4.654;2022-11-12T03:46:20;9.10;99.90
16907;DHT22;8570;52.380;4.654;2022-11-12T03:51:22;9.00;99.90
16907;DHT22;8570;52.380;4.654;2022-11-12T03:56:25;9.10;99.90
16907;DHT22;8570;52.380;4.654;2022-11-12T04:01:27;8.90;99.90
16907;DHT22;8570;52.380;4.654;2022-11-12T04:06:29;8.80;99.90
16907;DHT22;8570;52.380;4.654;2022-11-12T04:11:50;8.70;99.90
16907;DHT22;8570;52.380;4.654;2022-11-12T04:16:52;8.70;99.90
16907;DHT22;8570;52.380;4.654;2022-11-12T04:22:11;8.60;99.90
16907;DHT22;8570;52.380;4.654;2022-11-12T04:27:19;8.60;99.90
16907;DHT22;8570;52.380;4.654;2022-11-12T04:32:22;8.60;99.90
16907;DHT22;8570;52.380;4.654;2022-11-12T04:37:27;8.70;99.90
16907;DHT22;8570;52.380;4.654;2022-11-12T04:42:48;8.50;99.90
16907;DHT22;8570;52.380;4.654;2022-11-12T04:48:15;8.50;99.90
16907;DHT22;8570;52.380;4.654;2022-11-12T04:53:17;8.60;99.90
16907;DHT22;8570;52.380;4.654;2022-11-12T04:58:21;8.60;99.90
16907;DHT22;8570;52.380;4.654;2022-11-12T05:03:23;8.60;99.90
16907;DHT22;8570;52.380;4.654;2022-11-12T05:08:25;8.70;99.90
16907;DHT22;8570;52.380;4.654;2022-11-12T05:13:28;8.60;99.90
16907;DHT22;8570;52.380;4.654;2022-11-12T05:18:30;8.70;99.90
16907;DHT22;8570;52.380;4.654;2022-11-12T05:23:32;8.70;99.90
16907;DHT22;8570;52.380;4.654;2022-11-12T05:28:35;8.70;99.90
16907;DHT22;8570;52.380;4.654;2022-11-12T05:33:37;8.70;99.90
16907;DHT22;8570;52.380;4.654;2022-11-12T05:38:39;8.70;99.90
16907;DHT22;8570;52.380;4.654;2022-11-12T05:43:42;8.70;99.90
16907;DHT22;8570;52.380;4.654;2022-11-12T05:48:44;8.70;99.90
16907;DHT22;8570;52.380;4.654;2022-11-12T05:53:46;8.70;99.90
16907;DHT22;8570;52.380;4.654;2022-11-12T05:58:49;8.60;99.90
16907;DHT22;8570;52.380;4.654;2022-11-12T06:03:51;8.60;99.90
16907;DHT22;8570;52.380;4.654;2022-11-12T06:08:53;8.60;99.90
16907;DHT22;8570;52.380;4.654;2022-11-12T06:13:56;8.60;99.90
16907;DHT22;8570;52.380;4.654;2022-11-12T06:18:58;8.60;99.90
16907;DHT22;8570;52.380;4.654;2022-11-12T06:24:00;8.60;99.90
16907;DHT22;8570;52.380;4.654;2022-11-12T06:29:03;8.70;99.90
16907;DHT22;8570;52.380;4.654;2022-11-12T06:34:05;8.80;99.90
16907;DHT22;8570;52.380;4.654;2022-11-12T06:39:08;8.80;99.90
16907;DHT22;8570;52.380;4.654;2022-11-12T06:44:12;8.70;99.90
16907;DHT22;8570;52.380;4.654;2022-11-12T06:49:14;8.80;99.90
16907;DHT22;8570;52.380;4.654;2022-11-12T06:54:16;8.70;99.90
16907;DHT22;8570;52.380;4.654;2022-11-12T06:59:19;8.70;99.90
16907;DHT22;8570;52.380;4.654;2022-11-12T07:04:22;8.70;99.90
16907;DHT22;8570;52.380;4.654;2022-11-12T07:09:24;8.80;99.90
16907;DHT22;8570;52.380;4.654;2022-11-12T07:14:28;8.90;99.90
16907;DHT22;8570;52.380;4.654;2022-11-12T07:19:29;8.90;99.90
16907;DHT22;8570;52.380;4.654;2022-11-12T07:24:31;8.90;99.90
16907;DHT22;8570;52.380;4.654;2022-11-12T07:29:35;9.00;99.90
16907;DHT22;8570;52.380;4.654;2022-11-12T07:34:36;9.00;99.90
16907;DHT22;8570;52.380;4.654;2022-11-12T07:39:38;9.00;99.90
16907;DHT22;8570;52.380;4.654;2022-11-12T07:44:41;9.00;99.90
16907;DHT22;8570;52.380;4.654;2022-11-12T07:49:43;9.10;99.90
16907;DHT22;8570;52.380;4.654;2022-11-12T07:54:45;9.00;99.90
16907;DHT22;8570;52.380;4.654;2022-11-12T07:59:48;8.90;99.90
16907;DHT22;8570;52.380;4.654;2022-11-12T08:04:50;8.90;99.90
16907;DHT22;8570;52.380;4.654;2022-11-12T08:09:52;8.90;99.90
16907;DHT22;8570;52.380;4.654;2022-11-12T08:14:56;8.90;99.90
16907;DHT22;8570;52.380;4.654;2022-11-12T08:19:58;9.00;99.90
16907;DHT22;8570;52.380;4.654;2022-11-12T08:24:59;9.00;99.90
16907;DHT22;8570;52.380;4.654;2022-11-12T08:30:03;9.00;99.90
16907;DHT22;8570;52.380;4.654;2022-11-12T08:35:06;9.00;99.90
16907;DHT22;8570;52.380;4.654;2022-11-12T08:40:09;9.10;99.90
16907;DHT22;8570;52.380;4.654;2022-11-12T08:45:12;9.10;99.90
16907;DHT22;8570;52.380;4.654;2022-11-12T08:50:14;9.20;99.90
16907;DHT22;8570;52.380;4.654;2022-11-12T08:55:16;9.20;99.90
16907;DHT22;8570;52.380;4.654;2022-11-12T09:00:20;9.20;99.90
16907;DHT22;8570;52.380;4.654;2022-11-12T09:05:22;9.20;99.90
16907;DHT22;8570;52.380;4.654;2022-11-12T09:10:24;9.20;99.90
16907;DHT22;8570;52.380;4.654;2022-11-12T09:15:27;9.20;99.90
16907;DHT22;8570;52.380;4.654;2022-11-12T09:20:30;9.30;99.90
16907;DHT22;8570;52.380;4.654;2022-11-12T09:25:32;9.30;99.90
16907;DHT22;8570;52.380;4.654;2022-11-12T09:30:36;9.20;99.90
16907;DHT22;8570;52.380;4.654;2022-11-12T09:35:38;9.40;99.90
16907;DHT22;8570;52.380;4.654;2022-11-12T09:41:13;9.70;99.90
16907;DHT22;8570;52.380;4.654;2022-11-12T09:46:32;10.20;99.90
16907;DHT22;8570;52.380;4.654;2022-11-12T09:51:40;10.80;99.90
16907;DHT22;8570;52.380;4.654;2022-11-12T09:56:43;11.30;99.90
16907;DHT22;8570;52.380;4.654;2022-11-12T10:01:53;11.80;99.90
16907;DHT22;8570;52.380;4.654;2022-11-12T10:17:36;13.30;99.90
16907;DHT22;8570;52.380;4.654;2022-11-12T10:22:55;13.60;99.90
16907;DHT22;8570;52.380;4.654;2022-11-12T10:28:01;13.70;99.90
16907;DHT22;8570;52.380;4.654;2022-11-12T10:33:13;13.80;99.90
16907;DHT22;8570;52.380;4.654;2022-11-12T10:43:22;14.10;99.90
16907;DHT22;8570;52.380;4.654;2022-11-12T10:48:27;14.50;99.90
16907;DHT22;8570;52.380;4.654;2022-11-12T10:53:34;14.70;99.90
16907;DHT22;8570;52.380;4.654;2022-11-12T10:58:36;14.90;99.90
16907;DHT22;8570;52.380;4.654;2022-11-12T11:08:50;15.20;99.90
16907;DHT22;8570;52.380;4.654;2022-11-12T11:13:53;15.50;99.90
16907;DHT22;8570;52.380;4.654;2022-11-12T11:18:58;15.70;99.90
16907;DHT22;8570;52.380;4.654;2022-11-12T11:24:23;15.80;99.90
16907;DHT22;8570;52.380;4.654;2022-11-12T11:29:38;15.90;99.90
16907;DHT22;8570;52.380;4.654;2022-11-12T11:34:46;15.90;99.90
16907;DHT22;8570;52.380;4.654;2022-11-12T11:39:59;15.90;99.90
16907;DHT22;8570;52.380;4.654;2022-11-12T11:45:08;16.10;99.90
16907;DHT22;8570;52.380;4.654;2022-11-12T11:50:21;16.20;99.90
16907;DHT22;8570;52.380;4.654;2022-11-12T11:55:41;16.10;99.90
16907;DHT22;8570;52.380;4.654;2022-11-12T12:00:49;16.40;99.90
16907;DHT22;8570;52.380;4.654;2022-11-12T12:06:08;16.70;99.90
16907;DHT22;8570;52.380;4.654;2022-11-12T12:11:16;17.00;99.90
16907;DHT22;8570;52.380;4.654;2022-11-12T12:16:32;17.20;99.90
16907;DHT22;8570;52.380;4.654;2022-11-12T12:21:39;17.40;99.90
16907;DHT22;8570;52.380;4.654;2022-11-12T12:26:46;17.70;99.90
16907;DHT22;8570;52.380;4.654;2022-11-12T12:37:01;17.90;99.90
16907;DHT22;8570;52.380;4.654;2022-11-12T12:42:10;17.90;99.90
16907;DHT22;8570;52.380;4.654;2022-11-12T12:47:17;17.60;99.90
16907;DHT22;8570;52.380;4.654;2022-11-12T12:52:21;17.20;99.90
16907;DHT22;8570;52.380;4.654;2022-11-12T12:57:31;16.70;99.90
16907;DHT22;8570;52.380;4.654;2022-11-12T13:13:22;15.80;99.90
16907;DHT22;8570;52.380;4.654;2022-11-12T13:23:48;15.50;99.90
16907;DHT22;8570;52.380;4.654;2022-11-12T13:34:44;15.70;99.90
16907;DHT22;8570;52.380;4.654;2022-11-12T13:39:47;15.40;99.90
16907;DHT22;8570;52.380;4.654;2022-11-12T13:44:50;15.20;99.90
16907;DHT22;8570;52.380;4.654;2022-11-12T13:49:52;15.00;99.90
16907;DHT22;8570;52.380;4.654;2022-11-12T13:55:04;14.90;99.90
16907;DHT22;8570;52.380;4.654;2022-11-12T14:00:09;14.80;99.90
16907;DHT22;8570;52.380;4.654;2022-11-12T14:05:14;14.80;99.90
16907;DHT22;8570;52.380;4.654;2022-11-12T14:10:28;14.70;99.90
16907;DHT22;8570;52.380;4.654;2022-11-12T14:15:47;14.70;99.90
16907;DHT22;8570;52.380;4.654;2022-11-12T14:20:51;14.70;99.90
16907;DHT22;8570;52.380;4.654;2022-11-12T14:25:55;14.60;99.90
16907;DHT22;8570;52.380;4.654;2022-11-12T14:30:59;14.60;99.90
16907;DHT22;8570;52.380;4.654;2022-11-12T14:36:03;14.60;99.90
16907;DHT22;8570;52.380;4.654;2022-11-12T14:41:09;14.50;99.90
16907;DHT22;8570;52.380;4.654;2022-11-12T14:46:21;14.40;99.90
16907;DHT22;8570;52.380;4.654;2022-11-12T14:51:25;14.40;99.90
16907;DHT22;8570;52.380;4.654;2022-11-12T14:56:33;14.30;99.90
16907;DHT22;8570;52.380;4.654;2022-11-12T15:01:37;14.30;99.90
16907;DHT22;8570;52.380;4.654;2022-11-12T15:06:40;14.30;99.90
16907;DHT22;8570;52.380;4.654;2022-11-12T15:21:50;14.20;99.90
16907;DHT22;8570;52.380;4.654;2022-11-12T15:26:55;14.10;99.90
16907;DHT22;8570;52.380;4.654;2022-11-12T15:31:59;14.00;99.90
16907;DHT22;8570;52.380;4.654;2022-11-12T15:37:04;13.90;99.90
16907;DHT22;8570;52.380;4.654;2022-11-12T15:42:15;13.90;99.90
16907;DHT22;8570;52.380;4.654;2022-11-12T15:47:19;13.80;99.90
16907;DHT22;8570;52.380;4.654;2022-11-12T15:52:21;13.70;99.90
16907;DHT22;8570;52.380;4.654;2022-11-12T15:57:27;13.70;99.90
16907;DHT22;8570;52.380;4.654;2022-11-12T16:02:30;13.70;99.90
16907;DHT22;8570;52.380;4.654;2022-11-12T16:07:32;13.70;99.90
16907;DHT22;8570;52.380;4.654;2022-11-12T16:12:35;13.50;99.90
16907;DHT22;8570;52.380;4.654;2022-11-12T16:17:37;13.40;99.90
16907;DHT22;8570;52.380;4.654;2022-11-12T16:22:39;13.20;99.90
16907;DHT22;8570;52.380;4.654;2022-11-12T16:27:43;13.20;99.90
16907;DHT22;8570;52.380;4.654;2022-11-12T16:32:46;13.00;99.90
16907;DHT22;8570;52.380;4.654;2022-11-12T16:37:48;12.90;99.90
16907;DHT22;8570;52.380;4.654;2022-11-12T16:42:52;12.80;99.90
16907;DHT22;8570;52.380;4.654;2022-11-12T16:47:55;12.80;99.90
16907;DHT22;8570;52.380;4.654;2022-11-12T16:52:57;12.70;99.90
16907;DHT22;8570;52.380;4.654;2022-11-12T16:58:01;12.60;99.90
16907;DHT22;8570;52.380;4.654;2022-11-12T17:03:02;12.50;99.90
16907;DHT22;8570;52.380;4.654;2022-11-12T17:08:04;12.40;99.90
16907;DHT22;8570;52.380;4.654;2022-11-12T17:13:08;12.30;99.90
16907;DHT22;8570;52.380;4.654;2022-11-12T17:18:12;12.20;99.90
16907;DHT22;8570;52.380;4.654;2022-11-12T17:23:14;12.10;99.90
16907;DHT22;8570;52.380;4.654;2022-11-12T17:28:18;12.10;99.90
16907;DHT22;8570;52.380;4.654;2022-11-12T17:33:19;12.00;99.90
16907;DHT22;8570;52.380;4.654;2022-11-12T17:38:21;11.90;99.90
16907;DHT22;8570;52.380;4.654;2022-11-12T17:43:25;11.80;99.90
16907;DHT22;8570;52.380;4.654;2022-11-12T17:48:28;11.70;99.90
16907;DHT22;8570;52.380;4.654;2022-11-12T17:53:30;11.70;99.90
16907;DHT22;8570;52.380;4.654;2022-11-12T17:58:34;11.60;99.90
16907;DHT22;8570;52.380;4.654;2022-11-12T18:03:36;11.50;99.90
16907;DHT22;8570;52.380;4.654;2022-11-12T18:08:39;11.40;99.90
16907;DHT22;8570;52.380;4.654;2022-11-12T18:13:44;11.30;99.90
16907;DHT22;8570;52.380;4.654;2022-11-12T18:18:46;11.20;99.90
16907;DHT22;8570;52.380;4.654;2022-11-12T18:23:48;11.10;99.90
16907;DHT22;8570;52.380;4.654;2022-11-12T18:28:51;11.10;99.90
16907;DHT22;8570;52.380;4.654;2022-11-12T18:33:54;11.00;99.90
16907;DHT22;8570;52.380;4.654;2022-11-12T18:38:56;10.90;99.90
16907;DHT22;8570;52.380;4.654;2022-11-12T18:44:00;10.80;99.90
16907;DHT22;8570;52.380;4.654;2022-11-12T18:49:02;10.80;99.90
16907;DHT22;8570;52.380;4.654;2022-11-12T18:54:04;10.70;99.90
16907;DHT22;8570;52.380;4.654;2022-11-12T18:59:07;10.70;99.90
16907;DHT22;8570;52.380;4.654;2022-11-12T19:04:10;10.60;99.90
16907;DHT22;8570;52.380;4.654;2022-11-12T19:09:13;10.50;99.90
16907;DHT22;8570;52.380;4.654;2022-11-12T19:14:23;10.50;99.90
16907;DHT22;8570;52.380;4.654;2022-11-12T19:19:25;10.50;99.90
16907;DHT22;8570;52.380;4.654;2022-11-12T19:24:27;10.40;99.90
16907;DHT22;8570;52.380;4.654;2022-11-12T19:29:31;10.50;99.90
16907;DHT22;8570;52.380;4.654;2022-11-12T19:34:33;10.40;99.90
16907;DHT22;8570;52.380;4.654;2022-11-12T19:39:35;10.40;99.90
16907;DHT22;8570;52.380;4.654;2022-11-12T19:44:43;10.40;99.90
16907;DHT22;8570;52.380;4.654;2022-11-12T19:49:47;10.40;99.90
16907;DHT22;8570;52.380;4.654;2022-11-12T19:54:49;10.30;99.90
16907;DHT22;8570;52.380;4.654;2022-11-12T19:59:53;10.30;99.90
16907;DHT22;8570;52.380;4.654;2022-11-12T20:04:55;10.20;99.90
16907;DHT22;8570;52.380;4.654;2022-11-12T20:09:56;10.20;99.90
16907;DHT22;8570;52.380;4.654;2022-11-12T20:15:03;10.10;99.90
16907;DHT22;8570;52.380;4.654;2022-11-12T20:20:06;10.00;99.90
16907;DHT22;8570;52.380;4.654;2022-11-12T20:25:10;10.00;99.90
16907;DHT22;8570;52.380;4.654;2022-11-12T20:30:15;10.00;99.90
16907;DHT22;8570;52.380;4.654;2022-11-12T20:35:18;9.90;99.90
16907;DHT22;8570;52.380;4.654;2022-11-12T20:40:20;9.90;99.90
16907;DHT22;8570;52.380;4.654;2022-11-12T20:45:24;9.90;99.90
16907;DHT22;8570;52.380;4.654;2022-11-12T20:50:26;9.80;99.90
16907;DHT22;8570;52.380;4.654;2022-11-12T20:55:29;9.80;99.90
16907;DHT22;8570;52.380;4.654;2022-11-12T21:00:33;9.80;99.90
16907;DHT22;8570;52.380;4.654;2022-11-12T21:05:35;9.80;99.90
16907;DHT22;8570;52.380;4.654;2022-11-12T21:10:37;9.70;99.90
16907;DHT22;8570;52.380;4.654;2022-11-12T21:15:46;9.70;99.90
16907;DHT22;8570;52.380;4.654;2022-11-12T21:20:59;9.60;99.90
16907;DHT22;8570;52.380;4.654;2022-11-12T21:26:02;9.60;99.90
16907;DHT22;8570;52.380;4.654;2022-11-12T21:31:08;9.50;99.90
16907;DHT22;8570;52.380;4.654;2022-11-12T21:46:18;9.50;99.90
16907;DHT22;8570;52.380;4.654;2022-11-12T21:51:22;9.40;99.90
16907;DHT22;8570;52.380;4.654;2022-11-12T21:56:25;9.20;99.90
16907;DHT22;8570;52.380;4.654;2022-11-12T22:01:30;9.20;99.90
16907;DHT22;8570;52.380;4.654;2022-11-12T22:06:35;9.20;99.90
16907;DHT22;8570;52.380;4.654;2022-11-12T22:11:38;9.10;99.90
16907;DHT22;8570;52.380;4.654;2022-11-12T22:16:41;9.10;99.90
16907;DHT22;8570;52.380;4.654;2022-11-12T22:21:43;9.00;99.90
16907;DHT22;8570;52.380;4.654;2022-11-12T22:26:45;8.90;99.90
16907;DHT22;8570;52.380;4.654;2022-11-12T22:31:48;8.90;99.90
16907;DHT22;8570;52.380;4.654;2022-11-12T22:36:50;8.90;99.90
16907;DHT22;8570;52.380;4.654;2022-11-12T22:41:51;8.80;99.90
16907;DHT22;8570;52.380;4.654;2022-11-12T22:46:55;8.80;99.90
16907;DHT22;8570;52.380;4.654;2022-11-12T22:51:57;8.80;99.90
16907;DHT22;8570;52.380;4.654;2022-11-12T22:56:59;8.70;99.90
16907;DHT22;8570;52.380;4.654;2022-11-12T23:07:07;8.70;99.90
16907;DHT22;8570;52.380;4.654;2022-11-12T23:12:09;8.70;99.90
16907;DHT22;8570;52.380;4.654;2022-11-12T23:17:12;8.60;99.90
16907;DHT22;8570;52.380;4.654;2022-11-12T23:22:14;8.60;99.90
16907;DHT22;8570;52.380;4.654;2022-11-12T23:27:16;8.60;99.90
16907;DHT22;8570;52.380;4.654;2022-11-12T23:32:19;8.60;99.90
16907;DHT22;8570;52.380;4.654;2022-11-12T23:37:21;8.60;99.90
16907;DHT22;8570;52.380;4.654;2022-11-12T23:42:23;8.50;99.90
16907;DHT22;8570;52.380;4.654;2022-11-12T23:47:26;8.50;99.90
16907;DHT22;8570;52.380;4.654;2022-11-12T23:52:28;8.50;99.90
